sensor_id;sensor_type;location;lat;lon;timestamp;P1;durP1;ratioP1;P2;durP2;ratioP2
77146;SDS011;66121;52.584;9.694;2024-03-23T00:54:16;17.65;;;6.60;;
77146;SDS011;66121;52.584;9.694;2024-03-23T00:56:41;19.50;;;6.57;;
77146;SDS011;66121;52.584;9.694;2024-03-23T00:59:06;20.20;;;6.00;;
77146;SDS011;66121;52.584;9.694;2024-03-23T01:01:32;15.05;;;5.53;;
77146;SDS011;66121;52.584;9.694;2024-03-23T01:03:57;17.33;;;6.35;;
77146;SDS011;66121;52.584;9.694;2024-03-23T01:06:22;21.27;;;7.57;;
77146;SDS011;66121;52.584;9.694;2024-03-23T01:08:48;15.00;;;6.23;;
77146;SDS011;66121;52.584;9.694;2024-03-23T01:11:14;18.77;;;6.57;;
77146;SDS011;66121;52.584;9.694;2024-03-23T01:13:39;22.10;;;7.80;;
77146;SDS011;66121;52.584;9.694;2024-03-23T01:16:04;15.45;;;6.40;;
77146;SDS011;66121;52.584;9.694;2024-03-23T01:18:30;21.80;;;7.20;;
77146;SDS011;66121;52.584;9.694;2024-03-23T01:20:55;20.23;;;7.53;;
77146;SDS011;66121;52.584;9.694;2024-03-23T01:23:20;21.27;;;7.72;;
77146;SDS011;66121;52.584;9.694;2024-03-23T01:25:52;16.73;;;7.50;;
77146;SDS011;66121;52.584;9.694;2024-03-23T01:28:19;20.05;;;6.72;;
77146;SDS011;66121;52.584;9.694;2024-03-23T01:30:47;26.63;;;7.82;;
77146;SDS011;66121;52.584;9.694;2024-03-23T01:33:13;28.48;;;7.53;;
77146;SDS011;66121;52.584;9.694;2024-03-23T01:35:38;14.55;;;6.35;;
77146;SDS011;66121;52.584;9.694;2024-03-23T01:38:03;22.85;;;7.72;;
77146;SDS011;66121;52.584;9.694;2024-03-23T01:40:29;23.58;;;7.60;;
77146;SDS011;66121;52.584;9.694;2024-03-23T01:45:30;20.05;;;6.55;;
77146;SDS011;66121;52.584;9.694;2024-03-23T01:47:55;22.75;;;6.35;;
77146;SDS011;66121;52.584;9.694;2024-03-23T01:50:21;22.05;;;6.30;;
77146;SDS011;66121;52.584;9.694;2024-03-23T01:52:47;19.30;;;5.38;;
77146;SDS011;66121;52.584;9.694;2024-03-23T01:55:13;22.17;;;6.72;;
77146;SDS011;66121;52.584;9.694;2024-03-23T01:57:39;25.00;;;6.38;;
77146;SDS011;66121;52.584;9.694;2024-03-23T02:00:04;25.17;;;7.15;;
77146;SDS011;66121;52.584;9.694;2024-03-23T02:02:31;18.83;;;6.40;;
77146;SDS011;66121;52.584;9.694;2024-03-23T02:04:56;18.75;;;7.45;;
77146;SDS011;66121;52.584;9.694;2024-03-23T02:07:22;19.47;;;8.27;;
77146;SDS011;66121;52.584;9.694;2024-03-23T02:09:48;19.90;;;7.93;;
77146;SDS011;66121;52.584;9.694;2024-03-23T02:12:15;22.90;;;7.60;;
77146;SDS011;66121;52.584;9.694;2024-03-23T02:14:41;21.35;;;8.18;;
77146;SDS011;66121;52.584;9.694;2024-03-23T02:17:06;21.13;;;8.03;;
77146;SDS011;66121;52.584;9.694;2024-03-23T02:19:31;18.17;;;7.57;;
77146;SDS011;66121;52.584;9.694;2024-03-23T02:21:56;26.07;;;9.17;;
77146;SDS011;66121;52.584;9.694;2024-03-23T02:24:22;20.83;;;7.32;;
77146;SDS011;66121;52.584;9.694;2024-03-23T02:26:47;27.00;;;7.97;;
77146;SDS011;66121;52.584;9.694;2024-03-23T02:29:13;20.73;;;8.00;;
77146;SDS011;66121;52.584;9.694;2024-03-23T02:31:39;23.02;;;7.68;;
77146;SDS011;66121;52.584;9.694;2024-03-23T02:34:04;17.48;;;7.07;;
77146;SDS011;66121;52.584;9.694;2024-03-23T02:36:29;17.70;;;7.30;;
77146;SDS011;66121;52.584;9.694;2024-03-23T02:38:56;24.00;;;8.18;;
77146;SDS011;66121;52.584;9.694;2024-03-23T02:41:21;22.90;;;7.57;;
77146;SDS011;66121;52.584;9.694;2024-03-23T02:43:51;20.27;;;7.65;;
77146;SDS011;66121;52.584;9.694;2024-03-23T02:46:17;18.63;;;7.70;;
77146;SDS011;66121;52.584;9.694;2024-03-23T02:48:42;21.50;;;7.63;;
77146;SDS011;66121;52.584;9.694;2024-03-23T02:51:08;19.33;;;6.18;;
77146;SDS011;66121;52.584;9.694;2024-03-23T02:53:34;18.33;;;6.88;;
77146;SDS011;66121;52.584;9.694;2024-03-23T02:55:59;21.60;;;6.85;;
77146;SDS011;66121;52.584;9.694;2024-03-23T02:58:24;17.10;;;6.57;;
77146;SDS011;66121;52.584;9.694;2024-03-23T03:00:50;17.35;;;7.00;;
77146;SDS011;66121;52.584;9.694;2024-03-23T03:03:15;19.43;;;6.07;;
77146;SDS011;66121;52.584;9.694;2024-03-23T03:05:40;24.43;;;7.27;;
77146;SDS011;66121;52.584;9.694;2024-03-23T03:08:06;20.60;;;6.63;;
77146;SDS011;66121;52.584;9.694;2024-03-23T03:10:31;18.02;;;6.90;;
77146;SDS011;66121;52.584;9.694;2024-03-23T03:12:59;23.00;;;6.78;;
77146;SDS011;66121;52.584;9.694;2024-03-23T03:15:25;18.95;;;6.13;;
77146;SDS011;66121;52.584;9.694;2024-03-23T03:17:50;27.10;;;7.47;;
77146;SDS011;66121;52.584;9.694;2024-03-23T03:20:16;21.15;;;7.40;;
77146;SDS011;66121;52.584;9.694;2024-03-23T03:22:42;24.02;;;7.60;;
77146;SDS011;66121;52.584;9.694;2024-03-23T03:25:08;17.40;;;5.40;;
77146;SDS011;66121;52.584;9.694;2024-03-23T03:27:33;21.33;;;6.00;;
77146;SDS011;66121;52.584;9.694;2024-03-23T03:29:59;20.20;;;4.88;;
77146;SDS011;66121;52.584;9.694;2024-03-23T03:32:27;16.88;;;4.38;;
77146;SDS011;66121;52.584;9.694;2024-03-23T03:34:54;16.40;;;4.80;;
77146;SDS011;66121;52.584;9.694;2024-03-23T03:37:19;13.63;;;4.80;;
77146;SDS011;66121;52.584;9.694;2024-03-23T03:39:44;18.37;;;5.10;;
77146;SDS011;66121;52.584;9.694;2024-03-23T03:42:10;15.77;;;5.47;;
77146;SDS011;66121;52.584;9.694;2024-03-23T03:44:35;18.88;;;5.50;;
77146;SDS011;66121;52.584;9.694;2024-03-23T03:47:01;14.23;;;5.13;;
77146;SDS011;66121;52.584;9.694;2024-03-23T03:49:27;16.75;;;5.65;;
77146;SDS011;66121;52.584;9.694;2024-03-23T03:51:52;14.00;;;5.45;;
77146;SDS011;66121;52.584;9.694;2024-03-23T03:54:17;23.23;;;5.63;;
77146;SDS011;66121;52.584;9.694;2024-03-23T03:56:43;13.25;;;4.78;;
77146;SDS011;66121;52.584;9.694;2024-03-23T03:59:08;15.67;;;5.67;;
77146;SDS011;66121;52.584;9.694;2024-03-23T04:01:34;18.98;;;4.88;;
77146;SDS011;66121;52.584;9.694;2024-03-23T04:04:00;18.63;;;5.40;;
77146;SDS011;66121;52.584;9.694;2024-03-23T04:06:26;26.80;;;6.15;;
77146;SDS011;66121;52.584;9.694;2024-03-23T04:08:51;15.52;;;5.63;;
77146;SDS011;66121;52.584;9.694;2024-03-23T04:11:17;15.50;;;6.30;;
77146;SDS011;66121;52.584;9.694;2024-03-23T04:13:42;16.97;;;5.63;;
77146;SDS011;66121;52.584;9.694;2024-03-23T04:16:08;16.50;;;6.25;;
77146;SDS011;66121;52.584;9.694;2024-03-23T04:18:34;24.60;;;5.88;;
77146;SDS011;66121;52.584;9.694;2024-03-23T04:21:00;21.15;;;5.72;;
77146;SDS011;66121;52.584;9.694;2024-03-23T04:23:25;20.85;;;5.72;;
77146;SDS011;66121;52.584;9.694;2024-03-23T04:25:50;21.73;;;5.63;;
77146;SDS011;66121;52.584;9.694;2024-03-23T04:28:18;16.45;;;5.13;;
77146;SDS011;66121;52.584;9.694;2024-03-23T04:30:43;18.80;;;5.43;;
77146;SDS011;66121;52.584;9.694;2024-03-23T04:33:09;21.55;;;5.55;;
77146;SDS011;66121;52.584;9.694;2024-03-23T04:35:34;20.58;;;5.78;;
77146;SDS011;66121;52.584;9.694;2024-03-23T04:37:59;22.65;;;5.30;;
77146;SDS011;66121;52.584;9.694;2024-03-23T04:40:25;17.03;;;4.60;;
77146;SDS011;66121;52.584;9.694;2024-03-23T04:42:51;19.75;;;5.95;;
77146;SDS011;66121;52.584;9.694;2024-03-23T04:45:16;20.92;;;6.00;;
77146;SDS011;66121;52.584;9.694;2024-03-23T04:47:42;15.75;;;5.25;;
77146;SDS011;66121;52.584;9.694;2024-03-23T04:50:07;13.82;;;5.22;;
77146;SDS011;66121;52.584;9.694;2024-03-23T04:52:33;18.05;;;5.45;;
77146;SDS011;66121;52.584;9.694;2024-03-23T04:54:58;18.20;;;5.35;;
77146;SDS011;66121;52.584;9.694;2024-03-23T04:57:23;15.05;;;5.50;;
77146;SDS011;66121;52.584;9.694;2024-03-23T04:59:49;17.55;;;4.97;;
77146;SDS011;66121;52.584;9.694;2024-03-23T05:02:14;15.15;;;5.38;;
77146;SDS011;66121;52.584;9.694;2024-03-23T05:04:40;16.50;;;7.05;;
77146;SDS011;66121;52.584;9.694;2024-03-23T05:07:06;15.15;;;5.18;;
77146;SDS011;66121;52.584;9.694;2024-03-23T05:09:31;21.48;;;5.35;;
77146;SDS011;66121;52.584;9.694;2024-03-23T05:11:58;13.40;;;4.97;;
77146;SDS011;66121;52.584;9.694;2024-03-23T05:14:23;14.55;;;4.40;;
77146;SDS011;66121;52.584;9.694;2024-03-23T05:16:49;22.33;;;5.07;;
77146;SDS011;66121;52.584;9.694;2024-03-23T05:19:14;17.08;;;4.60;;
77146;SDS011;66121;52.584;9.694;2024-03-23T05:21:39;19.90;;;5.50;;
77146;SDS011;66121;52.584;9.694;2024-03-23T05:24:05;16.33;;;4.93;;
77146;SDS011;66121;52.584;9.694;2024-03-23T05:26:30;12.25;;;4.65;;
77146;SDS011;66121;52.584;9.694;2024-03-23T05:28:56;14.87;;;4.67;;
77146;SDS011;66121;52.584;9.694;2024-03-23T05:31:24;13.68;;;4.18;;
77146;SDS011;66121;52.584;9.694;2024-03-23T05:33:50;16.38;;;3.80;;
77146;SDS011;66121;52.584;9.694;2024-03-23T05:36:16;14.73;;;4.72;;
77146;SDS011;66121;52.584;9.694;2024-03-23T05:38:42;14.55;;;3.95;;
77146;SDS011;66121;52.584;9.694;2024-03-23T05:41:07;16.55;;;4.63;;
77146;SDS011;66121;52.584;9.694;2024-03-23T05:43:33;13.23;;;4.10;;
77146;SDS011;66121;52.584;9.694;2024-03-23T05:45:58;10.37;;;4.27;;
77146;SDS011;66121;52.584;9.694;2024-03-23T05:48:25;12.90;;;3.85;;
77146;SDS011;66121;52.584;9.694;2024-03-23T05:50:51;12.50;;;3.70;;
77146;SDS011;66121;52.584;9.694;2024-03-23T05:53:17;16.25;;;4.32;;
77146;SDS011;66121;52.584;9.694;2024-03-23T05:55:45;25.05;;;4.88;;
77146;SDS011;66121;52.584;9.694;2024-03-23T05:58:10;14.73;;;4.03;;
77146;SDS011;66121;52.584;9.694;2024-03-23T06:00:35;16.52;;;4.32;;
77146;SDS011;66121;52.584;9.694;2024-03-23T06:03:01;14.55;;;4.50;;
77146;SDS011;66121;52.584;9.694;2024-03-23T06:05:26;22.42;;;5.07;;
77146;SDS011;66121;52.584;9.694;2024-03-23T06:07:52;21.88;;;5.28;;
77146;SDS011;66121;52.584;9.694;2024-03-23T06:10:17;15.13;;;4.63;;
77146;SDS011;66121;52.584;9.694;2024-03-23T06:12:43;15.48;;;4.95;;
77146;SDS011;66121;52.584;9.694;2024-03-23T06:15:09;19.73;;;5.32;;
77146;SDS011;66121;52.584;9.694;2024-03-23T06:17:36;18.90;;;5.65;;
77146;SDS011;66121;52.584;9.694;2024-03-23T06:20:01;18.55;;;5.97;;
77146;SDS011;66121;52.584;9.694;2024-03-23T06:22:27;19.88;;;6.20;;
77146;SDS011;66121;52.584;9.694;2024-03-23T06:24:52;19.20;;;5.97;;
77146;SDS011;66121;52.584;9.694;2024-03-23T06:27:18;21.00;;;5.60;;
77146;SDS011;66121;52.584;9.694;2024-03-23T06:29:44;15.30;;;4.90;;
77146;SDS011;66121;52.584;9.694;2024-03-23T06:32:09;20.00;;;5.15;;
77146;SDS011;66121;52.584;9.694;2024-03-23T06:34:34;17.73;;;5.23;;
77146;SDS011;66121;52.584;9.694;2024-03-23T06:37:00;17.48;;;4.75;;
77146;SDS011;66121;52.584;9.694;2024-03-23T06:39:25;15.88;;;5.18;;
77146;SDS011;66121;52.584;9.694;2024-03-23T06:41:54;16.67;;;6.20;;
77146;SDS011;66121;52.584;9.694;2024-03-23T06:44:19;20.27;;;5.43;;
77146;SDS011;66121;52.584;9.694;2024-03-23T06:46:45;13.98;;;5.00;;
77146;SDS011;66121;52.584;9.694;2024-03-23T06:49:11;17.08;;;4.88;;
77146;SDS011;66121;52.584;9.694;2024-03-23T06:51:37;13.27;;;4.45;;
77146;SDS011;66121;52.584;9.694;2024-03-23T06:54:05;19.05;;;5.25;;
77146;SDS011;66121;52.584;9.694;2024-03-23T06:56:30;15.73;;;5.10;;
77146;SDS011;66121;52.584;9.694;2024-03-23T06:58:56;19.10;;;5.53;;
77146;SDS011;66121;52.584;9.694;2024-03-23T07:01:21;18.30;;;4.82;;
77146;SDS011;66121;52.584;9.694;2024-03-23T07:03:47;17.90;;;5.25;;
77146;SDS011;66121;52.584;9.694;2024-03-23T07:06:12;17.80;;;4.78;;
77146;SDS011;66121;52.584;9.694;2024-03-23T07:08:37;14.07;;;4.50;;
77146;SDS011;66121;52.584;9.694;2024-03-23T07:11:03;20.27;;;5.40;;
77146;SDS011;66121;52.584;9.694;2024-03-23T07:13:28;14.90;;;4.90;;
77146;SDS011;66121;52.584;9.694;2024-03-23T07:15:54;17.50;;;4.78;;
77146;SDS011;66121;52.584;9.694;2024-03-23T07:18:20;19.00;;;5.15;;
77146;SDS011;66121;52.584;9.694;2024-03-23T07:20:55;19.52;;;5.38;;
77146;SDS011;66121;52.584;9.694;2024-03-23T07:23:21;17.13;;;5.10;;
77146;SDS011;66121;52.584;9.694;2024-03-23T07:25:57;16.77;;;5.05;;
77146;SDS011;66121;52.584;9.694;2024-03-23T07:28:23;19.42;;;5.20;;
77146;SDS011;66121;52.584;9.694;2024-03-23T07:30:58;21.52;;;5.65;;
77146;SDS011;66121;52.584;9.694;2024-03-23T07:33:45;20.20;;;7.45;;
77146;SDS011;66121;52.584;9.694;2024-03-23T07:36:12;22.73;;;6.45;;
77146;SDS011;66121;52.584;9.694;2024-03-23T07:38:40;19.05;;;4.90;;
77146;SDS011;66121;52.584;9.694;2024-03-23T07:41:07;18.23;;;5.68;;
77146;SDS011;66121;52.584;9.694;2024-03-23T07:43:34;25.50;;;5.97;;
77146;SDS011;66121;52.584;9.694;2024-03-23T07:46:00;26.90;;;5.68;;
77146;SDS011;66121;52.584;9.694;2024-03-23T07:48:26;24.77;;;6.28;;
77146;SDS011;66121;52.584;9.694;2024-03-23T07:53:22;19.67;;;6.28;;
77146;SDS011;66121;52.584;9.694;2024-03-23T07:55:54;17.47;;;5.43;;
77146;SDS011;66121;52.584;9.694;2024-03-23T07:58:20;26.80;;;5.53;;
77146;SDS011;66121;52.584;9.694;2024-03-23T08:00:46;23.23;;;6.47;;
77146;SDS011;66121;52.584;9.694;2024-03-23T08:03:11;23.42;;;6.15;;
77146;SDS011;66121;52.584;9.694;2024-03-23T08:05:36;19.27;;;5.33;;
77146;SDS011;66121;52.584;9.694;2024-03-23T08:08:02;21.10;;;5.75;;
77146;SDS011;66121;52.584;9.694;2024-03-23T08:10:27;18.88;;;5.63;;
77146;SDS011;66121;52.584;9.694;2024-03-23T08:12:53;20.07;;;5.43;;
77146;SDS011;66121;52.584;9.694;2024-03-23T08:15:18;15.83;;;5.43;;
77146;SDS011;66121;52.584;9.694;2024-03-23T08:17:43;19.97;;;4.77;;
77146;SDS011;66121;52.584;9.694;2024-03-23T08:20:08;19.03;;;6.07;;
77146;SDS011;66121;52.584;9.694;2024-03-23T08:22:34;32.13;;;7.00;;
77146;SDS011;66121;52.584;9.694;2024-03-23T08:25:00;22.20;;;5.78;;
77146;SDS011;66121;52.584;9.694;2024-03-23T08:27:25;22.05;;;6.05;;
77146;SDS011;66121;52.584;9.694;2024-03-23T08:29:50;26.63;;;5.67;;
77146;SDS011;66121;52.584;9.694;2024-03-23T08:32:15;27.23;;;5.53;;
77146;SDS011;66121;52.584;9.694;2024-03-23T08:34:42;12.60;;;5.13;;
77146;SDS011;66121;52.584;9.694;2024-03-23T08:37:07;23.03;;;6.63;;
77146;SDS011;66121;52.584;9.694;2024-03-23T08:39:32;11.27;;;5.13;;
77146;SDS011;66121;52.584;9.694;2024-03-23T08:41:57;14.27;;;4.85;;
77146;SDS011;66121;52.584;9.694;2024-03-23T08:44:23;18.23;;;5.57;;
77146;SDS011;66121;52.584;9.694;2024-03-23T08:46:48;23.20;;;6.53;;
77146;SDS011;66121;52.584;9.694;2024-03-23T08:49:13;21.73;;;5.95;;
77146;SDS011;66121;52.584;9.694;2024-03-23T08:51:39;23.40;;;7.45;;
77146;SDS011;66121;52.584;9.694;2024-03-23T08:54:04;18.67;;;7.57;;
77146;SDS011;66121;52.584;9.694;2024-03-23T08:56:30;18.80;;;6.68;;
77146;SDS011;66121;52.584;9.694;2024-03-23T08:58:55;20.73;;;6.63;;
77146;SDS011;66121;52.584;9.694;2024-03-23T09:01:20;24.33;;;7.50;;
77146;SDS011;66121;52.584;9.694;2024-03-23T09:03:46;21.37;;;7.17;;
77146;SDS011;66121;52.584;9.694;2024-03-23T09:06:12;19.50;;;6.90;;
77146;SDS011;66121;52.584;9.694;2024-03-23T09:08:38;15.70;;;7.00;;
77146;SDS011;66121;52.584;9.694;2024-03-23T09:11:08;12.13;;;6.25;;
77146;SDS011;66121;52.584;9.694;2024-03-23T09:13:35;20.77;;;6.80;;
77146;SDS011;66121;52.584;9.694;2024-03-23T09:16:02;13.68;;;5.75;;
77146;SDS011;66121;52.584;9.694;2024-03-23T09:18:31;18.40;;;5.97;;
77146;SDS011;66121;52.584;9.694;2024-03-23T09:20:57;18.15;;;6.50;;
77146;SDS011;66121;52.584;9.694;2024-03-23T09:23:22;17.67;;;5.80;;
77146;SDS011;66121;52.584;9.694;2024-03-23T09:25:48;14.63;;;5.35;;
77146;SDS011;66121;52.584;9.694;2024-03-23T09:28:13;15.65;;;4.53;;
77146;SDS011;66121;52.584;9.694;2024-03-23T09:30:39;17.02;;;4.25;;
77146;SDS011;66121;52.584;9.694;2024-03-23T09:33:07;12.90;;;4.70;;
77146;SDS011;66121;52.584;9.694;2024-03-23T09:35:37;13.50;;;4.30;;
77146;SDS011;66121;52.584;9.694;2024-03-23T09:38:03;18.05;;;4.35;;
77146;SDS011;66121;52.584;9.694;2024-03-23T09:40:28;16.55;;;4.10;;
77146;SDS011;66121;52.584;9.694;2024-03-23T09:42:54;12.07;;;3.65;;
77146;SDS011;66121;52.584;9.694;2024-03-23T09:45:21;13.68;;;3.30;;
77146;SDS011;66121;52.584;9.694;2024-03-23T09:47:47;14.43;;;4.13;;
77146;SDS011;66121;52.584;9.694;2024-03-23T09:50:15;9.48;;;2.92;;
77146;SDS011;66121;52.584;9.694;2024-03-23T09:52:41;11.48;;;3.17;;
77146;SDS011;66121;52.584;9.694;2024-03-23T09:55:07;10.45;;;3.25;;
77146;SDS011;66121;52.584;9.694;2024-03-23T09:57:33;10.48;;;2.95;;
77146;SDS011;66121;52.584;9.694;2024-03-23T09:59:59;8.93;;;3.42;;
77146;SDS011;66121;52.584;9.694;2024-03-23T10:02:24;9.75;;;3.25;;
77146;SDS011;66121;52.584;9.694;2024-03-23T10:04:50;13.02;;;2.95;;
77146;SDS011;66121;52.584;9.694;2024-03-23T10:07:19;9.88;;;3.25;;
77146;SDS011;66121;52.584;9.694;2024-03-23T10:09:46;8.60;;;3.35;;
77146;SDS011;66121;52.584;9.694;2024-03-23T10:12:13;9.95;;;3.78;;
77146;SDS011;66121;52.584;9.694;2024-03-23T10:14:40;9.77;;;3.70;;
77146;SDS011;66121;52.584;9.694;2024-03-23T10:19:47;10.55;;;3.20;;
77146;SDS011;66121;52.584;9.694;2024-03-23T10:22:18;12.85;;;3.08;;
77146;SDS011;66121;52.584;9.694;2024-03-23T10:24:47;12.10;;;2.95;;
77146;SDS011;66121;52.584;9.694;2024-03-23T10:27:18;10.05;;;3.00;;
77146;SDS011;66121;52.584;9.694;2024-03-23T10:29:48;8.50;;;2.60;;
77146;SDS011;66121;52.584;9.694;2024-03-23T10:32:14;6.88;;;2.83;;
77146;SDS011;66121;52.584;9.694;2024-03-23T10:34:41;10.02;;;2.72;;
77146;SDS011;66121;52.584;9.694;2024-03-23T10:37:06;11.68;;;2.95;;
77146;SDS011;66121;52.584;9.694;2024-03-23T10:39:33;8.93;;;2.47;;
77146;SDS011;66121;52.584;9.694;2024-03-23T10:42:00;4.57;;;2.05;;
77146;SDS011;66121;52.584;9.694;2024-03-23T10:44:27;6.82;;;2.28;;
77146;SDS011;66121;52.584;9.694;2024-03-23T10:46:55;7.03;;;2.25;;
77146;SDS011;66121;52.584;9.694;2024-03-23T10:49:25;7.05;;;2.45;;
77146;SDS011;66121;52.584;9.694;2024-03-23T10:51:51;7.57;;;2.15;;
77146;SDS011;66121;52.584;9.694;2024-03-23T10:54:18;3.63;;;1.80;;
77146;SDS011;66121;52.584;9.694;2024-03-23T10:56:45;7.22;;;2.70;;
77146;SDS011;66121;52.584;9.694;2024-03-23T10:59:12;4.03;;;1.80;;
77146;SDS011;66121;52.584;9.694;2024-03-23T11:01:55;6.85;;;2.28;;
77146;SDS011;66121;52.584;9.694;2024-03-23T11:07:00;3.85;;;1.60;;
77146;SDS011;66121;52.584;9.694;2024-03-23T11:09:39;4.90;;;1.80;;
77146;SDS011;66121;52.584;9.694;2024-03-23T11:14:48;6.72;;;3.53;;
77146;SDS011;66121;52.584;9.694;2024-03-23T11:17:24;4.10;;;2.72;;
77146;SDS011;66121;52.584;9.694;2024-03-23T11:19:54;6.45;;;2.60;;
77146;SDS011;66121;52.584;9.694;2024-03-23T11:25:17;5.05;;;2.22;;
77146;SDS011;66121;52.584;9.694;2024-03-23T11:27:47;5.75;;;2.55;;
77146;SDS011;66121;52.584;9.694;2024-03-23T11:30:15;7.55;;;2.75;;
77146;SDS011;66121;52.584;9.694;2024-03-23T11:32:41;7.45;;;2.90;;
77146;SDS011;66121;52.584;9.694;2024-03-23T11:35:07;3.03;;;1.70;;
77146;SDS011;66121;52.584;9.694;2024-03-23T11:37:35;2.10;;;1.42;;
77146;SDS011;66121;52.584;9.694;2024-03-23T11:40:37;2.83;;;1.55;;
77146;SDS011;66121;52.584;9.694;2024-03-23T11:43:02;1.70;;;1.40;;
77146;SDS011;66121;52.584;9.694;2024-03-23T11:45:28;3.95;;;1.40;;
77146;SDS011;66121;52.584;9.694;2024-03-23T11:48:05;2.75;;;1.25;;
77146;SDS011;66121;52.584;9.694;2024-03-23T11:50:41;4.18;;;1.23;;
77146;SDS011;66121;52.584;9.694;2024-03-23T11:53:08;5.20;;;1.38;;
77146;SDS011;66121;52.584;9.694;2024-03-23T11:58:11;1.70;;;1.27;;
77146;SDS011;66121;52.584;9.694;2024-03-23T12:00:37;2.72;;;1.50;;
77146;SDS011;66121;52.584;9.694;2024-03-23T12:03:03;1.25;;;1.10;;
77146;SDS011;66121;52.584;9.694;2024-03-23T12:05:29;1.23;;;0.90;;
77146;SDS011;66121;52.584;9.694;2024-03-23T12:07:55;3.17;;;0.88;;
77146;SDS011;66121;52.584;9.694;2024-03-23T12:10:20;2.50;;;0.80;;
77146;SDS011;66121;52.584;9.694;2024-03-23T12:12:46;4.45;;;1.17;;
77146;SDS011;66121;52.584;9.694;2024-03-23T12:15:11;1.27;;;1.10;;
77146;SDS011;66121;52.584;9.694;2024-03-23T12:17:37;1.67;;;0.95;;
77146;SDS011;66121;52.584;9.694;2024-03-23T12:20:03;3.03;;;1.33;;
77146;SDS011;66121;52.584;9.694;2024-03-23T12:22:29;1.70;;;1.23;;
77146;SDS011;66121;52.584;9.694;2024-03-23T12:24:56;2.03;;;1.30;;
77146;SDS011;66121;52.584;9.694;2024-03-23T12:27:21;8.50;;;1.70;;
77146;SDS011;66121;52.584;9.694;2024-03-23T12:29:47;3.42;;;1.20;;
77146;SDS011;66121;52.584;9.694;2024-03-23T12:32:13;3.40;;;1.30;;
77146;SDS011;66121;52.584;9.694;2024-03-23T12:34:39;1.88;;;1.20;;
77146;SDS011;66121;52.584;9.694;2024-03-23T12:37:05;2.97;;;1.48;;
77146;SDS011;66121;52.584;9.694;2024-03-23T12:39:35;4.57;;;1.50;;
77146;SDS011;66121;52.584;9.694;2024-03-23T12:42:04;1.30;;;0.95;;
77146;SDS011;66121;52.584;9.694;2024-03-23T12:44:30;5.15;;;1.70;;
77146;SDS011;66121;52.584;9.694;2024-03-23T12:46:56;3.38;;;1.65;;
77146;SDS011;66121;52.584;9.694;2024-03-23T12:49:22;4.47;;;1.70;;
77146;SDS011;66121;52.584;9.694;2024-03-23T12:51:53;3.75;;;2.03;;
77146;SDS011;66121;52.584;9.694;2024-03-23T12:54:24;4.32;;;1.70;;
77146;SDS011;66121;52.584;9.694;2024-03-23T12:56:50;4.43;;;1.85;;
77146;SDS011;66121;52.584;9.694;2024-03-23T12:59:15;3.25;;;1.83;;
77146;SDS011;66121;52.584;9.694;2024-03-23T13:01:42;4.75;;;1.80;;
77146;SDS011;66121;52.584;9.694;2024-03-23T13:04:08;4.15;;;1.83;;
77146;SDS011;66121;52.584;9.694;2024-03-23T13:06:34;3.85;;;1.95;;
77146;SDS011;66121;52.584;9.694;2024-03-23T13:09:00;2.72;;;1.60;;
77146;SDS011;66121;52.584;9.694;2024-03-23T13:11:26;4.15;;;1.77;;
77146;SDS011;66121;52.584;9.694;2024-03-23T13:13:52;6.28;;;2.10;;
77146;SDS011;66121;52.584;9.694;2024-03-23T13:16:18;5.03;;;1.93;;
77146;SDS011;66121;52.584;9.694;2024-03-23T13:18:43;3.70;;;1.90;;
77146;SDS011;66121;52.584;9.694;2024-03-23T13:21:08;7.33;;;1.97;;
77146;SDS011;66121;52.584;9.694;2024-03-23T13:23:34;5.13;;;2.10;;
77146;SDS011;66121;52.584;9.694;2024-03-23T13:26:00;6.53;;;1.70;;
77146;SDS011;66121;52.584;9.694;2024-03-23T13:28:26;4.85;;;1.65;;
77146;SDS011;66121;52.584;9.694;2024-03-23T13:33:17;4.22;;;1.52;;
77146;SDS011;66121;52.584;9.694;2024-03-23T13:35:49;2.88;;;1.60;;
77146;SDS011;66121;52.584;9.694;2024-03-23T13:38:18;5.85;;;1.67;;
77146;SDS011;66121;52.584;9.694;2024-03-23T13:43:15;3.15;;;1.42;;
77146;SDS011;66121;52.584;9.694;2024-03-23T13:45:40;5.65;;;2.30;;
77146;SDS011;66121;52.584;9.694;2024-03-23T13:48:05;4.85;;;1.80;;
77146;SDS011;66121;52.584;9.694;2024-03-23T13:50:31;3.50;;;1.58;;
77146;SDS011;66121;52.584;9.694;2024-03-23T13:52:56;3.40;;;1.70;;
77146;SDS011;66121;52.584;9.694;2024-03-23T13:55:22;3.53;;;1.90;;
77146;SDS011;66121;52.584;9.694;2024-03-23T13:57:48;2.63;;;1.63;;
77146;SDS011;66121;52.584;9.694;2024-03-23T14:00:13;4.07;;;1.90;;
77146;SDS011;66121;52.584;9.694;2024-03-23T14:02:39;4.25;;;1.65;;
77146;SDS011;66121;52.584;9.694;2024-03-23T14:05:05;4.07;;;1.57;;
77146;SDS011;66121;52.584;9.694;2024-03-23T14:07:30;5.05;;;2.00;;
77146;SDS011;66121;52.584;9.694;2024-03-23T14:09:55;5.40;;;1.97;;
77146;SDS011;66121;52.584;9.694;2024-03-23T14:12:21;6.40;;;1.97;;
77146;SDS011;66121;52.584;9.694;2024-03-23T14:14:46;4.93;;;2.07;;
77146;SDS011;66121;52.584;9.694;2024-03-23T14:17:11;7.13;;;2.63;;
77146;SDS011;66121;52.584;9.694;2024-03-23T14:19:39;5.60;;;2.30;;
77146;SDS011;66121;52.584;9.694;2024-03-23T14:22:04;5.60;;;2.58;;
77146;SDS011;66121;52.584;9.694;2024-03-23T14:24:32;5.32;;;1.40;;
77146;SDS011;66121;52.584;9.694;2024-03-23T14:26:58;1.02;;;0.85;;
77146;SDS011;66121;52.584;9.694;2024-03-23T14:29:23;0.93;;;0.90;;
77146;SDS011;66121;52.584;9.694;2024-03-23T14:31:48;2.43;;;0.83;;
77146;SDS011;66121;52.584;9.694;2024-03-23T14:34:14;1.65;;;0.98;;
77146;SDS011;66121;52.584;9.694;2024-03-23T14:36:39;1.85;;;1.00;;
77146;SDS011;66121;52.584;9.694;2024-03-23T14:39:05;3.67;;;1.23;;
77146;SDS011;66121;52.584;9.694;2024-03-23T14:41:31;5.18;;;1.60;;
77146;SDS011;66121;52.584;9.694;2024-03-23T14:43:56;2.92;;;1.33;;
77146;SDS011;66121;52.584;9.694;2024-03-23T14:46:22;4.25;;;1.35;;
77146;SDS011;66121;52.584;9.694;2024-03-23T14:48:47;3.78;;;1.63;;
77146;SDS011;66121;52.584;9.694;2024-03-23T14:51:13;5.18;;;1.30;;
77146;SDS011;66121;52.584;9.694;2024-03-23T14:53:39;5.47;;;1.67;;
77146;SDS011;66121;52.584;9.694;2024-03-23T14:56:06;3.55;;;1.48;;
77146;SDS011;66121;52.584;9.694;2024-03-23T14:58:32;4.82;;;1.45;;
77146;SDS011;66121;52.584;9.694;2024-03-23T15:01:02;5.57;;;1.45;;
77146;SDS011;66121;52.584;9.694;2024-03-23T15:03:27;2.53;;;1.67;;
77146;SDS011;66121;52.584;9.694;2024-03-23T15:05:56;7.38;;;1.85;;
77146;SDS011;66121;52.584;9.694;2024-03-23T15:08:23;5.78;;;2.22;;
77146;SDS011;66121;52.584;9.694;2024-03-23T15:10:49;4.35;;;2.55;;
77146;SDS011;66121;52.584;9.694;2024-03-23T15:13:15;3.67;;;1.92;;
77146;SDS011;66121;52.584;9.694;2024-03-23T15:15:41;5.03;;;2.70;;
77146;SDS011;66121;52.584;9.694;2024-03-23T15:18:09;5.28;;;2.30;;
77146;SDS011;66121;52.584;9.694;2024-03-23T15:20:35;2.80;;;1.70;;
77146;SDS011;66121;52.584;9.694;2024-03-23T15:23:01;5.30;;;2.22;;
77146;SDS011;66121;52.584;9.694;2024-03-23T15:25:27;2.78;;;1.67;;
77146;SDS011;66121;52.584;9.694;2024-03-23T15:27:53;4.53;;;2.17;;
77146;SDS011;66121;52.584;9.694;2024-03-23T15:30:19;3.80;;;2.00;;
77146;SDS011;66121;52.584;9.694;2024-03-23T15:32:45;4.55;;;2.75;;
77146;SDS011;66121;52.584;9.694;2024-03-23T15:35:10;8.40;;;1.88;;
77146;SDS011;66121;52.584;9.694;2024-03-23T15:37:36;3.17;;;1.83;;
77146;SDS011;66121;52.584;9.694;2024-03-23T15:40:04;3.08;;;2.00;;
77146;SDS011;66121;52.584;9.694;2024-03-23T15:42:31;6.82;;;2.35;;
77146;SDS011;66121;52.584;9.694;2024-03-23T15:44:56;7.78;;;2.92;;
77146;SDS011;66121;52.584;9.694;2024-03-23T15:47:22;2.75;;;1.70;;
77146;SDS011;66121;52.584;9.694;2024-03-23T15:49:48;7.65;;;3.30;;